Pittsburgh, PA

12:33 PM EST on February 23, 2019 (GMT -0500)
Lawrenceville-Bloomfield | | Change Station
Active Advisory: High Wind Watch

Elev 886 ft 40.46 °N, 79.96 °W | Updated 32 seconds ago

Overcast
Overcast
40.8 °F
Feels Like 36 °F
N
7.6
Wind Variable Wind from North
Gusts 9.8 mph

Today
High -- | Low -- °F
--% Chance of Precip.
Yesterday
High -- | Low -- °F
Precip. -- in
Pressure 30.16 in
Visibility 3.0 miles
Clouds Mostly Cloudy 1400 ft
Overcast 2900 ft
Windchill 36 °F
Dew Point 33 °F
Humidity 73%
Rainfall 0.00 in
Snow Depth Not available.
7:02 AM 6:04 PM
Waning Gibbous, 78% visible
SPECI KAGC 231730Z 09006KT 3SM -RA BR BKN014 OVC029 03/02 A3016 RMK AO2 P0000 T00330017
Pressure 30.16 in
Visibility 3.0 miles
Clouds Mostly Cloudy 1400 ft
Overcast 2900 ft
Windchill 36 °F
Dew Point 33 °F
Humidity 73%
Rainfall 0.00 in
Snow Depth Not available.
7:02 AM 6:04 PM
Waning Gibbous, 78% visible
SPECI KAGC 231730Z 09006KT 3SM -RA BR BKN014 OVC029 03/02 A3016 RMK AO2 P0000 T00330017

Get Your Daily Forecast Email!

Thanks for signing up!

Be on the lookout for a verification email in your inbox.

You'll start receiving severe weather alerts in your inbox..

×

10-Day Weather Forecast

Almanac

Astronomy

Feb. 23, 2019 Rise Set
Actual Time
Civil Twilight
Nautical Twilight
Astronomical Twilight
Moon
Length of Visible Light
Length of Day
Tomorrow will be .
, % of the Moon is Illuminated

Today's Extremes

State Highs State Lows

Community

WunderPhotos

Category 6

Welcome to Category 6. This is the collective home for Weather Underground's featured writeups by Dr. Jeff Masters (right), Bob Henson (left), Chris Burt, and other regular contributors.

Nearby

Air Quality

  Air Quality AQ Index Pollutant
Not available.

Snow Depth

Station Depth Elevation

Earthquake Activity

City Distance Mag. Time & Date
Minimum magnitude displayed is 2.5.

Coastal Water Temperatures

Place Temperature

Stations

Nearby Weather Stations

Station Location Temp. Windchill Dew Point Humidity Wind Precip. Elev Updated Type
                   

Watches & Warnings

High Wind Watch
Issued: 11:04 AM EST Feb. 23, 2019 – National Weather Service

... High wind watch remains in effect from Sunday morning through
Monday morning...

* winds... west 25 to 35 mph with gusts around 60 mph.

* Timing... strongest winds expected Sunday morning through
Sunday evening.

* Impacts... damaging winds will blow down trees and power lines.
Widespread power outages are possible.

Precautionary/preparedness actions...

A high wind watch means there is the potential for a hazardous
high wind event. Sustained winds of at least 40 mph, or gusts of
58 mph or stronger may occur. Continue to monitor the latest
forecasts.